This is the latest recevied weather packets stored in our database for station/object OM1PU-6. If no packets are shown the sender has not sent any weather packets the latest 10 day(s).
| Time | Temp. | Humidity | Pressure | Rain* | Wind** | Luminosity | Snow |
|---|---|---|---|---|---|---|---|
| 1777457894 | 15.56° C | 36% | 1034.7 hPa | 0 mm | - | - | - |
| 1777456994 | 16.11° C | 35% | 1034.9 hPa | 0 mm | - | - | - |
| 1777456093 | 16.11° C | 35% | 1034.9 hPa | 0 mm | - | - | - |
| 1777455193 | 16.11° C | 35% | 1035.1 hPa | 0 mm | - | - | - |
| 1777454293 | 16.11° C | 35% | 1035.1 hPa | 0 mm | - | - | - |
| 1777453394 | 14.44° C | 38% | 1035.4 hPa | 0 mm | - | - | - |
| 1777452493 | 14.44° C | 40% | 1035.2 hPa | 0 mm | - | - | - |
| 1777451594 | 13.89° C | 38% | 1035 hPa | 0 mm | - | - | - |
| 1777450693 | 13.89° C | 37% | 1035.1 hPa | 0 mm | - | - | - |
| 1777449794 | 13.33° C | 40% | 1035.2 hPa | 0 mm | - | - | - |
| 1777448894 | 12.78° C | 40% | 1035.2 hPa | 0 mm | - | - | - |
| 1777447994 | 13.33° C | 39% | 1035.2 hPa | 0 mm | - | - | - |
| 1777447093 | 12.22° C | 41% | 1035.1 hPa | 0 mm | - | - | - |
| 1777446194 | 11.67° C | 40% | 1035 hPa | 0 mm | - | - | - |
| 1777445294 | 11.11° C | 41% | 1034.8 hPa | 0 mm | - | - | - |
| 1777444393 | 10.56° C | 43% | 1034.9 hPa | 0 mm | - | - | - |
| 1777443493 | 10° C | 47% | 1034.8 hPa | 0 mm | - | - | - |
| 1777442593 | 9.44° C | 48% | 1034.8 hPa | 0 mm | - | - | - |
| 1777441693 | 8.89° C | 48% | 1034.8 hPa | 0 mm | - | - | - |
| 1777440793 | 8.33° C | 49% | 1034.7 hPa | 0 mm | - | - | - |
| 1777439894 | 7.78° C | 50% | 1034.6 hPa | 0 mm | - | - | - |
| 1777438993 | 7.78° C | 51% | 1034.6 hPa | 0 mm | - | - | - |
| 1777438094 | 6.67° C | 53% | 1034.4 hPa | 0 mm | - | - | - |
| 1777437193 | 6.11° C | 55% | 1034.2 hPa | 0 mm | - | - | - |
| 1777436303 | 5.56° C | 57% | 1034.1 hPa | 0 mm | - | - | - |
* Rain latest 24 hours (hover to see other rain measurements)
** Current wind speed in m/s (hover to see current wind gust speed)